sensor_id;sensor_type;location;lat;lon;timestamp;pressure;altitude;pressure_sealevel;temperature;humidity
49463;BME280;35357;51.722;0.500;2022-07-09T00:02:04;102769.35;;;19.87;53.83
49463;BME280;35357;51.722;0.500;2022-07-09T00:04:32;102768.11;;;19.82;54.39
49463;BME280;35357;51.722;0.500;2022-07-09T00:06:59;102773.91;;;19.31;55.43
49463;BME280;35357;51.722;0.500;2022-07-09T00:09:26;102774.72;;;19.54;55.56
49463;BME280;35357;51.722;0.500;2022-07-09T00:11:53;102776.13;;;19.45;55.50
49463;BME280;35357;51.722;0.500;2022-07-09T00:14:21;102778.81;;;19.17;57.09
49463;BME280;35357;51.722;0.500;2022-07-09T00:16:49;102783.81;;;18.99;56.93
49463;BME280;35357;51.722;0.500;2022-07-09T00:19:16;102783.14;;;18.88;57.73
49463;BME280;35357;51.722;0.500;2022-07-09T00:21:42;102781.01;;;19.21;57.88
49463;BME280;35357;51.722;0.500;2022-07-09T00:24:09;102785.65;;;19.39;56.35
49463;BME280;35357;51.722;0.500;2022-07-09T00:26:36;102785.47;;;19.17;56.74
49463;BME280;35357;51.722;0.500;2022-07-09T00:29:03;102789.81;;;19.53;56.43
49463;BME280;35357;51.722;0.500;2022-07-09T00:31:30;102792.68;;;19.05;57.37
49463;BME280;35357;51.722;0.500;2022-07-09T00:33:58;102790.17;;;18.70;59.25
49463;BME280;35357;51.722;0.500;2022-07-09T00:36:26;102791.60;;;17.65;62.09
49463;BME280;35357;51.722;0.500;2022-07-09T00:38:53;102798.78;;;18.28;61.32
49463;BME280;35357;51.722;0.500;2022-07-09T00:41:21;102792.67;;;17.57;63.40
49463;BME280;35357;51.722;0.500;2022-07-09T00:43:49;102796.37;;;17.45;64.24
49463;BME280;35357;51.722;0.500;2022-07-09T00:46:17;102794.15;;;17.68;63.66
49463;BME280;35357;51.722;0.500;2022-07-09T00:48:45;102792.97;;;17.74;63.77
49463;BME280;35357;51.722;0.500;2022-07-09T00:51:13;102789.97;;;18.19;62.60
49463;BME280;35357;51.722;0.500;2022-07-09T00:53:40;102788.78;;;17.73;63.89
49463;BME280;35357;51.722;0.500;2022-07-09T00:56:08;102785.49;;;17.64;64.20
49463;BME280;35357;51.722;0.500;2022-07-09T00:58:36;102783.69;;;16.98;66.49
49463;BME280;35357;51.722;0.500;2022-07-09T01:01:03;102787.91;;;17.35;66.17
49463;BME280;35357;51.722;0.500;2022-07-09T01:03:30;102786.89;;;17.28;67.58
49463;BME280;35357;51.722;0.500;2022-07-09T01:05:58;102787.82;;;17.20;67.30
49463;BME280;35357;51.722;0.500;2022-07-09T01:08:26;102790.88;;;17.56;65.26
49463;BME280;35357;51.722;0.500;2022-07-09T01:10:54;102787.86;;;17.28;66.98
49463;BME280;35357;51.722;0.500;2022-07-09T01:13:21;102784.74;;;17.60;66.22
49463;BME280;35357;51.722;0.500;2022-07-09T01:15:49;102784.81;;;17.30;66.69
49463;BME280;35357;51.722;0.500;2022-07-09T01:18:16;102782.01;;;17.27;68.37
49463;BME280;35357;51.722;0.500;2022-07-09T01:20:44;102784.28;;;17.10;68.93
49463;BME280;35357;51.722;0.500;2022-07-09T01:23:12;102783.01;;;16.72;69.71
49463;BME280;35357;51.722;0.500;2022-07-09T01:25:40;102783.07;;;16.64;70.33
49463;BME280;35357;51.722;0.500;2022-07-09T01:28:09;102783.88;;;16.95;69.39
49463;BME280;35357;51.722;0.500;2022-07-09T01:30:38;102781.80;;;16.80;70.27
49463;BME280;35357;51.722;0.500;2022-07-09T01:33:06;102779.14;;;16.69;71.92
49463;BME280;35357;51.722;0.500;2022-07-09T01:35:33;102778.65;;;17.16;71.04
49463;BME280;35357;51.722;0.500;2022-07-09T01:38:01;102783.18;;;17.50;69.67
49463;BME280;35357;51.722;0.500;2022-07-09T01:40:29;102781.46;;;16.59;71.70
49463;BME280;35357;51.722;0.500;2022-07-09T01:42:55;102783.84;;;16.80;71.43
49463;BME280;35357;51.722;0.500;2022-07-09T01:45:23;102790.16;;;16.27;73.65
49463;BME280;35357;51.722;0.500;2022-07-09T01:47:51;102787.63;;;16.68;73.18
49463;BME280;35357;51.722;0.500;2022-07-09T01:50:18;102786.64;;;17.05;71.10
49463;BME280;35357;51.722;0.500;2022-07-09T01:52:46;102788.14;;;17.20;71.80
49463;BME280;35357;51.722;0.500;2022-07-09T01:55:14;102789.10;;;17.50;70.39
49463;BME280;35357;51.722;0.500;2022-07-09T01:57:40;102793.99;;;17.54;69.83
49463;BME280;35357;51.722;0.500;2022-07-09T02:00:08;102790.85;;;17.25;69.66
49463;BME280;35357;51.722;0.500;2022-07-09T02:02:35;102789.63;;;17.51;68.96
49463;BME280;35357;51.722;0.500;2022-07-09T02:05:03;102790.44;;;17.66;67.72
49463;BME280;35357;51.722;0.500;2022-07-09T02:07:31;102789.80;;;16.86;70.92
49463;BME280;35357;51.722;0.500;2022-07-09T02:09:59;102787.82;;;16.85;69.80
49463;BME280;35357;51.722;0.500;2022-07-09T02:12:26;102790.58;;;17.14;69.83
49463;BME280;35357;51.722;0.500;2022-07-09T02:14:53;102789.98;;;16.96;70.65
49463;BME280;35357;51.722;0.500;2022-07-09T02:17:20;102791.38;;;16.21;72.71
49463;BME280;35357;51.722;0.500;2022-07-09T02:19:47;102794.70;;;16.93;71.52
49463;BME280;35357;51.722;0.500;2022-07-09T02:22:14;102790.26;;;16.47;72.69
49463;BME280;35357;51.722;0.500;2022-07-09T02:24:41;102784.71;;;17.10;70.37
49463;BME280;35357;51.722;0.500;2022-07-09T02:27:09;102780.73;;;16.49;69.96
49463;BME280;35357;51.722;0.500;2022-07-09T02:29:36;102781.80;;;17.10;69.29
49463;BME280;35357;51.722;0.500;2022-07-09T02:32:03;102779.35;;;16.96;70.40
49463;BME280;35357;51.722;0.500;2022-07-09T02:34:30;102775.51;;;16.94;70.81
49463;BME280;35357;51.722;0.500;2022-07-09T02:36:58;102773.47;;;17.05;70.65
49463;BME280;35357;51.722;0.500;2022-07-09T02:39:26;102774.40;;;17.01;70.42
49463;BME280;35357;51.722;0.500;2022-07-09T02:41:53;102774.97;;;17.10;69.22
49463;BME280;35357;51.722;0.500;2022-07-09T02:44:20;102775.45;;;16.84;70.45
49463;BME280;35357;51.722;0.500;2022-07-09T02:46:48;102775.76;;;16.73;71.00
49463;BME280;35357;51.722;0.500;2022-07-09T02:49:15;102777.37;;;16.95;69.85
49463;BME280;35357;51.722;0.500;2022-07-09T02:51:43;102782.35;;;16.92;70.35
49463;BME280;35357;51.722;0.500;2022-07-09T02:54:10;102778.69;;;16.29;73.07
49463;BME280;35357;51.722;0.500;2022-07-09T02:56:37;102776.31;;;16.29;73.00
49463;BME280;35357;51.722;0.500;2022-07-09T02:59:04;102771.21;;;16.35;72.48
49463;BME280;35357;51.722;0.500;2022-07-09T03:01:31;102769.77;;;16.43;73.05
49463;BME280;35357;51.722;0.500;2022-07-09T03:03:58;102767.65;;;15.85;74.62
49463;BME280;35357;51.722;0.500;2022-07-09T03:06:25;102768.68;;;16.09;74.75
49463;BME280;35357;51.722;0.500;2022-07-09T03:08:52;102771.45;;;16.29;73.69
49463;BME280;35357;51.722;0.500;2022-07-09T03:11:19;102772.30;;;16.25;74.39
49463;BME280;35357;51.722;0.500;2022-07-09T03:13:46;102775.41;;;16.04;75.04
49463;BME280;35357;51.722;0.500;2022-07-09T03:16:13;102775.38;;;16.11;74.83
49463;BME280;35357;51.722;0.500;2022-07-09T03:18:40;102780.36;;;15.30;78.42
49463;BME280;35357;51.722;0.500;2022-07-09T03:21:07;102783.52;;;14.93;80.08
49463;BME280;35357;51.722;0.500;2022-07-09T03:23:34;102780.73;;;14.85;80.55
49463;BME280;35357;51.722;0.500;2022-07-09T03:26:04;102780.43;;;14.88;80.44
49463;BME280;35357;51.722;0.500;2022-07-09T03:28:32;102778.06;;;15.81;77.37
49463;BME280;35357;51.722;0.500;2022-07-09T03:30:59;102786.37;;;15.28;79.50
49463;BME280;35357;51.722;0.500;2022-07-09T03:33:27;102785.14;;;15.55;77.77
49463;BME280;35357;51.722;0.500;2022-07-09T03:35:54;102787.63;;;15.59;78.07
49463;BME280;35357;51.722;0.500;2022-07-09T03:38:21;102784.75;;;15.99;76.70
49463;BME280;35357;51.722;0.500;2022-07-09T03:40:49;102783.50;;;16.01;76.73
49463;BME280;35357;51.722;0.500;2022-07-09T03:43:17;102790.39;;;15.39;78.77
49463;BME280;35357;51.722;0.500;2022-07-09T03:45:44;102791.00;;;15.29;79.05
49463;BME280;35357;51.722;0.500;2022-07-09T03:48:11;102791.09;;;15.44;78.21
49463;BME280;35357;51.722;0.500;2022-07-09T03:50:38;102792.35;;;14.84;80.23
49463;BME280;35357;51.722;0.500;2022-07-09T03:53:05;102797.77;;;15.00;80.04
49463;BME280;35357;51.722;0.500;2022-07-09T03:55:33;102793.55;;;15.18;79.67
49463;BME280;35357;51.722;0.500;2022-07-09T03:58:00;102792.31;;;15.08;81.71
49463;BME280;35357;51.722;0.500;2022-07-09T04:00:28;102793.32;;;14.97;81.33
49463;BME280;35357;51.722;0.500;2022-07-09T04:02:55;102792.04;;;14.67;83.92
49463;BME280;35357;51.722;0.500;2022-07-09T04:05:22;102793.44;;;14.49;82.68
49463;BME280;35357;51.722;0.500;2022-07-09T04:07:50;102789.85;;;13.71;85.60
49463;BME280;35357;51.722;0.500;2022-07-09T04:10:17;102789.94;;;14.06;86.58
49463;BME280;35357;51.722;0.500;2022-07-09T04:12:44;102785.61;;;14.07;86.92
49463;BME280;35357;51.722;0.500;2022-07-09T04:15:11;102782.91;;;13.83;87.79
49463;BME280;35357;51.722;0.500;2022-07-09T04:17:38;102783.57;;;13.73;90.31
49463;BME280;35357;51.722;0.500;2022-07-09T04:20:06;102782.36;;;13.59;89.90
49463;BME280;35357;51.722;0.500;2022-07-09T04:22:34;102779.12;;;13.91;90.02
49463;BME280;35357;51.722;0.500;2022-07-09T04:25:02;102780.41;;;14.21;88.68
49463;BME280;35357;51.722;0.500;2022-07-09T04:27:29;102777.30;;;14.47;87.91
49463;BME280;35357;51.722;0.500;2022-07-09T04:29:56;102773.40;;;14.27;89.42
49463;BME280;35357;51.722;0.500;2022-07-09T04:32:22;102770.47;;;13.85;89.33
49463;BME280;35357;51.722;0.500;2022-07-09T04:34:49;102775.83;;;14.93;83.93
49463;BME280;35357;51.722;0.500;2022-07-09T04:37:16;102781.87;;;15.08;82.85
49463;BME280;35357;51.722;0.500;2022-07-09T04:39:43;102783.84;;;15.40;81.97
49463;BME280;35357;51.722;0.500;2022-07-09T04:42:10;102785.28;;;14.81;83.13
49463;BME280;35357;51.722;0.500;2022-07-09T04:44:36;102776.61;;;14.07;88.63
49463;BME280;35357;51.722;0.500;2022-07-09T04:47:04;102779.64;;;14.29;88.88
49463;BME280;35357;51.722;0.500;2022-07-09T04:49:31;102780.68;;;13.61;92.92
49463;BME280;35357;51.722;0.500;2022-07-09T04:51:59;102783.46;;;13.72;94.14
49463;BME280;35357;51.722;0.500;2022-07-09T04:54:26;102792.80;;;14.34;92.68
49463;BME280;35357;51.722;0.500;2022-07-09T04:56:54;102787.32;;;13.87;94.12
49463;BME280;35357;51.722;0.500;2022-07-09T04:59:21;102787.36;;;14.21;93.46
49463;BME280;35357;51.722;0.500;2022-07-09T05:01:48;102785.68;;;14.03;93.56
49463;BME280;35357;51.722;0.500;2022-07-09T05:04:15;102790.75;;;13.75;98.08
49463;BME280;35357;51.722;0.500;2022-07-09T05:06:42;102790.82;;;14.02;98.12
49463;BME280;35357;51.722;0.500;2022-07-09T05:09:10;102794.91;;;14.39;94.10
49463;BME280;35357;51.722;0.500;2022-07-09T05:11:38;102795.92;;;14.44;94.09
49463;BME280;35357;51.722;0.500;2022-07-09T05:14:04;102791.71;;;14.73;90.53
49463;BME280;35357;51.722;0.500;2022-07-09T05:16:31;102792.09;;;15.07;88.18
49463;BME280;35357;51.722;0.500;2022-07-09T05:19:00;102790.75;;;14.66;89.66
49463;BME280;35357;51.722;0.500;2022-07-09T05:21:27;102796.05;;;15.04;88.35
49463;BME280;35357;51.722;0.500;2022-07-09T05:23:53;102799.53;;;15.07;89.10
49463;BME280;35357;51.722;0.500;2022-07-09T05:26:20;102802.83;;;15.00;88.76
49463;BME280;35357;51.722;0.500;2022-07-09T05:28:47;102807.25;;;14.51;92.67
49463;BME280;35357;51.722;0.500;2022-07-09T05:31:14;102803.69;;;14.53;91.29
49463;BME280;35357;51.722;0.500;2022-07-09T05:33:41;102802.20;;;14.71;90.93
49463;BME280;35357;51.722;0.500;2022-07-09T05:36:09;102807.21;;;15.40;87.94
49463;BME280;35357;51.722;0.500;2022-07-09T05:38:36;102807.88;;;14.92;90.99
49463;BME280;35357;51.722;0.500;2022-07-09T05:41:03;102803.77;;;14.55;94.30
49463;BME280;35357;51.722;0.500;2022-07-09T05:43:31;102804.05;;;14.59;92.59
49463;BME280;35357;51.722;0.500;2022-07-09T05:45:58;102803.86;;;15.10;89.63
49463;BME280;35357;51.722;0.500;2022-07-09T05:48:25;102807.26;;;15.17;88.56
49463;BME280;35357;51.722;0.500;2022-07-09T05:50:52;102807.81;;;14.77;91.38
49463;BME280;35357;51.722;0.500;2022-07-09T05:53:19;102806.54;;;14.45;93.37
49463;BME280;35357;51.722;0.500;2022-07-09T05:55:46;102810.42;;;15.21;90.75
49463;BME280;35357;51.722;0.500;2022-07-09T05:58:13;102805.71;;;15.09;91.06
49463;BME280;35357;51.722;0.500;2022-07-09T06:00:41;102799.86;;;15.79;88.52
49463;BME280;35357;51.722;0.500;2022-07-09T06:03:09;102799.75;;;15.78;88.05
49463;BME280;35357;51.722;0.500;2022-07-09T06:05:36;102806.06;;;15.42;90.36
49463;BME280;35357;51.722;0.500;2022-07-09T06:08:04;102805.41;;;15.92;88.49
49463;BME280;35357;51.722;0.500;2022-07-09T06:10:32;102808.07;;;16.84;84.28
49463;BME280;35357;51.722;0.500;2022-07-09T06:13:00;102810.22;;;16.90;83.28
49463;BME280;35357;51.722;0.500;2022-07-09T06:15:27;102809.24;;;16.85;83.03
49463;BME280;35357;51.722;0.500;2022-07-09T06:17:55;102804.48;;;17.07;81.89
49463;BME280;35357;51.722;0.500;2022-07-09T06:20:22;102801.41;;;16.50;83.38
49463;BME280;35357;51.722;0.500;2022-07-09T06:22:50;102802.89;;;17.34;79.97
49463;BME280;35357;51.722;0.500;2022-07-09T06:25:18;102799.20;;;17.39;79.39
49463;BME280;35357;51.722;0.500;2022-07-09T06:27:45;102802.29;;;17.35;78.81
49463;BME280;35357;51.722;0.500;2022-07-09T06:30:12;102804.84;;;17.78;77.97
49463;BME280;35357;51.722;0.500;2022-07-09T06:32:40;102810.04;;;17.49;77.61
49463;BME280;35357;51.722;0.500;2022-07-09T06:35:08;102808.33;;;17.10;78.68
49463;BME280;35357;51.722;0.500;2022-07-09T06:37:35;102812.83;;;17.79;77.62
49463;BME280;35357;51.722;0.500;2022-07-09T06:40:04;102813.09;;;17.32;80.05
49463;BME280;35357;51.722;0.500;2022-07-09T06:42:31;102813.24;;;18.32;77.18
49463;BME280;35357;51.722;0.500;2022-07-09T06:44:59;102814.87;;;17.54;78.41
49463;BME280;35357;51.722;0.500;2022-07-09T06:47:26;102808.83;;;17.16;80.73
49463;BME280;35357;51.722;0.500;2022-07-09T06:49:53;102811.51;;;17.33;79.69
49463;BME280;35357;51.722;0.500;2022-07-09T06:52:21;102803.27;;;17.86;77.15
49463;BME280;35357;51.722;0.500;2022-07-09T06:54:48;102806.10;;;17.64;77.86
49463;BME280;35357;51.722;0.500;2022-07-09T06:57:15;102807.79;;;17.41;77.18
49463;BME280;35357;51.722;0.500;2022-07-09T06:59:41;102807.77;;;17.55;75.59
49463;BME280;35357;51.722;0.500;2022-07-09T07:02:09;102802.90;;;17.65;76.26
49463;BME280;35357;51.722;0.500;2022-07-09T07:04:37;102804.47;;;17.29;75.97
49463;BME280;35357;51.722;0.500;2022-07-09T07:07:04;102807.02;;;17.24;76.53
49463;BME280;35357;51.722;0.500;2022-07-09T07:09:31;102810.04;;;17.50;74.60
49463;BME280;35357;51.722;0.500;2022-07-09T07:11:58;102809.29;;;17.99;73.00
49463;BME280;35357;51.722;0.500;2022-07-09T07:14:26;102803.51;;;18.45;72.65
49463;BME280;35357;51.722;0.500;2022-07-09T07:16:53;102801.65;;;18.79;70.04
49463;BME280;35357;51.722;0.500;2022-07-09T07:19:21;102799.23;;;18.62;70.31
49463;BME280;35357;51.722;0.500;2022-07-09T07:21:49;102792.76;;;18.60;69.49
49463;BME280;35357;51.722;0.500;2022-07-09T07:24:16;102802.43;;;18.89;68.76
49463;BME280;35357;51.722;0.500;2022-07-09T07:26:44;102808.55;;;19.09;67.39
49463;BME280;35357;51.722;0.500;2022-07-09T07:29:11;102807.98;;;19.28;67.37
49463;BME280;35357;51.722;0.500;2022-07-09T07:31:39;102815.71;;;18.91;67.94
49463;BME280;35357;51.722;0.500;2022-07-09T07:34:07;102812.18;;;18.29;70.05
49463;BME280;35357;51.722;0.500;2022-07-09T07:36:34;102812.19;;;18.43;69.35
49463;BME280;35357;51.722;0.500;2022-07-09T07:39:03;102815.95;;;18.46;68.92
49463;BME280;35357;51.722;0.500;2022-07-09T07:41:30;102815.37;;;18.40;69.87
49463;BME280;35357;51.722;0.500;2022-07-09T07:43:57;102815.95;;;18.61;69.49
49463;BME280;35357;51.722;0.500;2022-07-09T07:46:24;102824.61;;;18.90;67.20
49463;BME280;35357;51.722;0.500;2022-07-09T07:48:52;102826.82;;;19.18;67.67
49463;BME280;35357;51.722;0.500;2022-07-09T07:51:18;102823.93;;;19.04;66.06
49463;BME280;35357;51.722;0.500;2022-07-09T07:53:45;102822.69;;;19.00;66.92
49463;BME280;35357;51.722;0.500;2022-07-09T07:56:13;102817.63;;;19.51;65.37
49463;BME280;35357;51.722;0.500;2022-07-09T07:58:41;102815.77;;;19.41;64.52
49463;BME280;35357;51.722;0.500;2022-07-09T08:01:09;102816.31;;;20.00;63.12
49463;BME280;35357;51.722;0.500;2022-07-09T08:03:36;102821.35;;;19.62;63.77
49463;BME280;35357;51.722;0.500;2022-07-09T08:06:03;102815.74;;;19.86;63.42
49463;BME280;35357;51.722;0.500;2022-07-09T08:08:31;102822.13;;;19.99;63.01
49463;BME280;35357;51.722;0.500;2022-07-09T08:10:58;102819.64;;;19.57;63.75
49463;BME280;35357;51.722;0.500;2022-07-09T08:13:26;102819.82;;;19.21;65.26
49463;BME280;35357;51.722;0.500;2022-07-09T08:15:54;102818.59;;;19.16;62.02
49463;BME280;35357;51.722;0.500;2022-07-09T08:18:21;102820.02;;;19.59;61.01
49463;BME280;35357;51.722;0.500;2022-07-09T08:20:49;102822.06;;;19.35;61.68
49463;BME280;35357;51.722;0.500;2022-07-09T08:23:16;102822.79;;;20.39;59.89
49463;BME280;35357;51.722;0.500;2022-07-09T08:25:43;102822.69;;;19.46;61.68
49463;BME280;35357;51.722;0.500;2022-07-09T08:28:11;102827.82;;;19.93;61.04
49463;BME280;35357;51.722;0.500;2022-07-09T08:30:37;102826.80;;;19.93;60.00
49463;BME280;35357;51.722;0.500;2022-07-09T08:33:05;102822.01;;;20.39;58.87
49463;BME280;35357;51.722;0.500;2022-07-09T08:35:33;102829.95;;;19.77;60.74
49463;BME280;35357;51.722;0.500;2022-07-09T08:38:00;102825.43;;;19.90;60.22
49463;BME280;35357;51.722;0.500;2022-07-09T08:40:28;102829.74;;;19.74;60.84
49463;BME280;35357;51.722;0.500;2022-07-09T08:42:57;102832.70;;;19.20;62.61
49463;BME280;35357;51.722;0.500;2022-07-09T08:45:30;102838.77;;;19.44;62.19
49463;BME280;35357;51.722;0.500;2022-07-09T08:48:00;102838.15;;;19.40;63.14
49463;BME280;35357;51.722;0.500;2022-07-09T08:50:27;102837.22;;;19.82;62.06
49463;BME280;35357;51.722;0.500;2022-07-09T08:52:55;102837.79;;;19.76;61.23
49463;BME280;35357;51.722;0.500;2022-07-09T08:55:22;102831.05;;;19.82;59.88
49463;BME280;35357;51.722;0.500;2022-07-09T08:57:50;102825.03;;;19.96;56.68
49463;BME280;35357;51.722;0.500;2022-07-09T09:00:17;102832.57;;;19.77;56.73
49463;BME280;35357;51.722;0.500;2022-07-09T09:02:45;102818.33;;;20.58;56.29
49463;BME280;35357;51.722;0.500;2022-07-09T09:05:14;102822.88;;;20.12;55.83
49463;BME280;35357;51.722;0.500;2022-07-09T09:07:42;102825.60;;;20.21;55.95
49463;BME280;35357;51.722;0.500;2022-07-09T09:10:20;102810.25;;;20.36;55.16
49463;BME280;35357;51.722;0.500;2022-07-09T09:12:48;102800.68;;;19.84;56.34
49463;BME280;35357;51.722;0.500;2022-07-09T09:15:17;102794.76;;;20.93;54.51
49463;BME280;35357;51.722;0.500;2022-07-09T09:17:45;102797.50;;;21.61;52.03
49463;BME280;35357;51.722;0.500;2022-07-09T09:20:12;102806.17;;;20.73;52.94
49463;BME280;35357;51.722;0.500;2022-07-09T09:22:45;102809.02;;;19.68;54.79
49463;BME280;35357;51.722;0.500;2022-07-09T09:25:16;102801.76;;;20.21;54.59
49463;BME280;35357;51.722;0.500;2022-07-09T09:27:50;102798.47;;;20.07;54.70
49463;BME280;35357;51.722;0.500;2022-07-09T09:30:19;102798.71;;;20.28;54.20
49463;BME280;35357;51.722;0.500;2022-07-09T09:32:54;102807.77;;;20.38;54.08
49463;BME280;35357;51.722;0.500;2022-07-09T09:35:22;102805.93;;;20.91;52.73
49463;BME280;35357;51.722;0.500;2022-07-09T09:37:50;102802.44;;;20.83;52.83
49463;BME280;35357;51.722;0.500;2022-07-09T09:40:18;102802.44;;;20.95;52.23
49463;BME280;35357;51.722;0.500;2022-07-09T09:42:45;102806.20;;;20.75;52.39
49463;BME280;35357;51.722;0.500;2022-07-09T09:45:13;102804.03;;;21.10;52.35
49463;BME280;35357;51.722;0.500;2022-07-09T09:47:42;102816.58;;;20.53;51.69
49463;BME280;35357;51.722;0.500;2022-07-09T09:50:17;102809.12;;;19.77;52.39
49463;BME280;35357;51.722;0.500;2022-07-09T09:52:45;102813.59;;;20.48;52.15
49463;BME280;35357;51.722;0.500;2022-07-09T09:55:13;102813.26;;;20.39;51.80
49463;BME280;35357;51.722;0.500;2022-07-09T09:57:41;102819.15;;;20.69;53.06
49463;BME280;35357;51.722;0.500;2022-07-09T10:00:11;102815.03;;;20.45;52.41
49463;BME280;35357;51.722;0.500;2022-07-09T10:02:42;102810.94;;;21.60;49.72
49463;BME280;35357;51.722;0.500;2022-07-09T10:05:09;102802.36;;;21.46;50.07
49463;BME280;35357;51.722;0.500;2022-07-09T10:07:37;102806.08;;;21.30;50.46
49463;BME280;35357;51.722;0.500;2022-07-09T10:10:06;102806.91;;;20.48;50.33
49463;BME280;35357;51.722;0.500;2022-07-09T10:12:35;102811.87;;;21.75;48.58
49463;BME280;35357;51.722;0.500;2022-07-09T10:15:08;102828.39;;;21.49;48.55
49463;BME280;35357;51.722;0.500;2022-07-09T10:17:46;102818.43;;;21.17;49.09
49463;BME280;35357;51.722;0.500;2022-07-09T10:20:14;102811.74;;;20.47;50.93
49463;BME280;35357;51.722;0.500;2022-07-09T10:22:42;102815.47;;;20.80;50.97
49463;BME280;35357;51.722;0.500;2022-07-09T10:25:11;102820.96;;;21.46;48.69
49463;BME280;35357;51.722;0.500;2022-07-09T10:27:42;102811.38;;;21.24;49.20
49463;BME280;35357;51.722;0.500;2022-07-09T10:30:25;102803.23;;;22.19;45.76
49463;BME280;35357;51.722;0.500;2022-07-09T10:33:10;102812.18;;;21.32;47.39
49463;BME280;35357;51.722;0.500;2022-07-09T10:35:41;102809.75;;;22.29;45.47
49463;BME280;35357;51.722;0.500;2022-07-09T10:38:11;102796.69;;;22.44;44.89
49463;BME280;35357;51.722;0.500;2022-07-09T10:40:41;102792.64;;;23.30;43.31
49463;BME280;35357;51.722;0.500;2022-07-09T10:43:08;102801.81;;;23.16;43.96
49463;BME280;35357;51.722;0.500;2022-07-09T10:45:37;102800.12;;;21.92;44.47
49463;BME280;35357;51.722;0.500;2022-07-09T10:48:07;102796.35;;;22.21;42.94
49463;BME280;35357;51.722;0.500;2022-07-09T10:50:37;102798.28;;;22.03;44.01
49463;BME280;35357;51.722;0.500;2022-07-09T10:53:05;102799.29;;;22.78;43.10
49463;BME280;35357;51.722;0.500;2022-07-09T10:55:32;102802.13;;;23.13;41.88
49463;BME280;35357;51.722;0.500;2022-07-09T10:58:00;102791.15;;;23.46;40.26
49463;BME280;35357;51.722;0.500;2022-07-09T11:00:29;102790.36;;;22.90;42.08
49463;BME280;35357;51.722;0.500;2022-07-09T11:02:58;102808.27;;;22.66;41.10
49463;BME280;35357;51.722;0.500;2022-07-09T11:05:26;102806.60;;;23.21;39.85
49463;BME280;35357;51.722;0.500;2022-07-09T11:07:56;102795.91;;;23.91;40.09
49463;BME280;35357;51.722;0.500;2022-07-09T11:10:23;102798.53;;;22.83;40.46
49463;BME280;35357;51.722;0.500;2022-07-09T11:12:51;102799.39;;;23.24;40.12
49463;BME280;35357;51.722;0.500;2022-07-09T11:15:19;102789.55;;;21.55;42.55
49463;BME280;35357;51.722;0.500;2022-07-09T11:17:54;102787.98;;;20.73;47.01
49463;BME280;35357;51.722;0.500;2022-07-09T11:20:21;102804.85;;;21.66;45.37
49463;BME280;35357;51.722;0.500;2022-07-09T11:22:49;102804.75;;;21.52;45.37
49463;BME280;35357;51.722;0.500;2022-07-09T11:25:17;102799.79;;;21.65;44.72
49463;BME280;35357;51.722;0.500;2022-07-09T11:27:45;102805.86;;;22.06;43.11
49463;BME280;35357;51.722;0.500;2022-07-09T11:30:13;102800.42;;;21.85;42.92
49463;BME280;35357;51.722;0.500;2022-07-09T11:32:41;102787.26;;;22.66;40.98
49463;BME280;35357;51.722;0.500;2022-07-09T11:35:09;102807.02;;;22.39;42.94
49463;BME280;35357;51.722;0.500;2022-07-09T11:37:38;102800.02;;;21.61;43.21
49463;BME280;35357;51.722;0.500;2022-07-09T11:40:16;102794.54;;;21.22;45.37
49463;BME280;35357;51.722;0.500;2022-07-09T11:42:44;102809.63;;;22.17;44.50
49463;BME280;35357;51.722;0.500;2022-07-09T11:45:12;102796.99;;;22.83;42.64
49463;BME280;35357;51.722;0.500;2022-07-09T11:47:40;102796.28;;;22.67;43.31
49463;BME280;35357;51.722;0.500;2022-07-09T11:50:10;102791.88;;;21.97;42.99
49463;BME280;35357;51.722;0.500;2022-07-09T11:52:43;102789.57;;;22.53;42.09
49463;BME280;35357;51.722;0.500;2022-07-09T11:55:14;102790.18;;;22.41;42.08
49463;BME280;35357;51.722;0.500;2022-07-09T11:57:52;102788.12;;;23.20;40.50
49463;BME280;35357;51.722;0.500;2022-07-09T12:00:22;102777.12;;;22.18;42.08
49463;BME280;35357;51.722;0.500;2022-07-09T12:02:51;102785.22;;;22.31;41.11
49463;BME280;35357;51.722;0.500;2022-07-09T12:05:30;102783.65;;;23.10;39.29
49463;BME280;35357;51.722;0.500;2022-07-09T12:08:00;102780.94;;;23.21;39.65
49463;BME280;35357;51.722;0.500;2022-07-09T12:10:29;102783.90;;;23.50;40.39
49463;BME280;35357;51.722;0.500;2022-07-09T12:12:57;102777.50;;;23.48;40.22
49463;BME280;35357;51.722;0.500;2022-07-09T12:15:24;102781.07;;;23.80;39.49
49463;BME280;35357;51.722;0.500;2022-07-09T12:17:52;102784.82;;;23.26;39.41
49463;BME280;35357;51.722;0.500;2022-07-09T12:20:21;102780.28;;;22.89;38.72
49463;BME280;35357;51.722;0.500;2022-07-09T12:22:49;102782.94;;;22.64;39.16
49463;BME280;35357;51.722;0.500;2022-07-09T12:25:16;102768.90;;;22.66;39.32
49463;BME280;35357;51.722;0.500;2022-07-09T12:27:44;102776.13;;;23.34;38.73
49463;BME280;35357;51.722;0.500;2022-07-09T12:30:12;102776.47;;;23.54;37.95
49463;BME280;35357;51.722;0.500;2022-07-09T12:32:41;102774.97;;;23.44;37.86
49463;BME280;35357;51.722;0.500;2022-07-09T12:35:09;102776.96;;;23.45;37.83
49463;BME280;35357;51.722;0.500;2022-07-09T12:37:37;102773.15;;;23.87;37.57
49463;BME280;35357;51.722;0.500;2022-07-09T12:40:07;102763.40;;;23.25;38.93
49463;BME280;35357;51.722;0.500;2022-07-09T12:42:35;102767.86;;;23.12;39.40
49463;BME280;35357;51.722;0.500;2022-07-09T12:45:03;102756.91;;;24.22;37.36
49463;BME280;35357;51.722;0.500;2022-07-09T12:47:31;102760.62;;;23.26;38.61
49463;BME280;35357;51.722;0.500;2022-07-09T12:49:58;102760.37;;;22.73;40.28
49463;BME280;35357;51.722;0.500;2022-07-09T12:52:26;102758.63;;;23.27;38.73
49463;BME280;35357;51.722;0.500;2022-07-09T12:54:54;102759.72;;;22.84;39.49